Time;durP1;ratioP1;P1;durP2;ratioP2;P2;SDS_P1;SDS_P2;PMS_P1;PMS_P2;Temp;Humidity;BMP_temperature;BMP_pressure;BME280_temperature;BME280_humidity;BME280_pressure;Samples;Min_cycle;Max_cycle;Signal;HPM_P1;HPM_P2
2023/06/17 00:01:06;;;;;;;49.80;8.40;;;29.70;42.60;;;;;;5035460;28;20197;-66
2023/06/17 00:03:33;;;;;;;18.07;5.13;;;29.70;42.60;;;;;;5021131;28;20197;-66
2023/06/17 00:06:00;;;;;;;33.43;7.50;;;29.70;42.70;;;;;;5024474;28;20216;-62
2023/06/17 00:08:27;;;;;;;26.00;6.43;;;29.50;42.50;;;;;;5025447;28;20224;-67
2023/06/17 00:10:53;;;;;;;32.90;7.00;;;29.60;42.60;;;;;;5026327;28;20204;-65
2023/06/17 00:13:22;;;;;;;50.10;8.13;;;29.60;42.60;;;;;;5026840;28;20676;-72
2023/06/17 00:15:50;;;;;;;29.73;6.90;;;29.60;42.60;;;;;;5028130;28;20263;-62
2023/06/17 00:18:19;;;;;;;31.60;7.30;;;29.60;42.60;;;;;;5014337;28;20205;-64
2023/06/17 00:20:47;;;;;;;32.83;7.43;;;29.50;42.60;;;;;;5010826;28;20844;-66
2023/06/17 00:23:14;;;;;;;33.67;7.00;;;29.50;42.60;;;;;;5015526;28;20658;-66
2023/06/17 00:25:40;;;;;;;39.90;7.77;;;29.50;42.60;;;;;;5019315;28;20204;-63
2023/06/17 00:28:07;;;;;;;29.20;6.83;;;29.50;42.60;;;;;;5022527;28;20225;-67
2023/06/17 00:30:36;;;;;;;30.40;7.27;;;29.40;42.50;;;;;;5024776;28;20209;-65
2023/06/17 00:33:03;;;;;;;45.63;8.47;;;29.40;42.50;;;;;;5039110;28;20196;-66
2023/06/17 00:35:29;;;;;;;37.20;7.53;;;29.40;42.50;;;;;;5021211;28;20300;-64
2023/06/17 00:37:56;;;;;;;57.63;9.53;;;29.40;42.50;;;;;;5025792;28;20210;-63
2023/06/17 00:40:23;;;;;;;43.30;8.17;;;29.40;42.50;;;;;;5014662;28;20553;-69
2023/06/17 00:42:50;;;;;;;28.33;6.90;;;29.30;42.50;;;;;;5025450;28;20193;-66
2023/06/17 00:45:17;;;;;;;25.07;6.60;;;29.30;42.50;;;;;;5028230;28;20203;-63
2023/06/17 00:47:46;;;;;;;31.10;7.27;;;29.30;42.60;;;;;;5016854;28;20225;-70
2023/06/17 00:50:15;;;;;;;34.27;7.30;;;29.30;42.50;;;;;;5022160;28;20380;-65
2023/06/17 00:52:43;;;;;;;39.60;7.83;;;29.30;42.50;;;;;;5027071;28;20215;-72
2023/06/17 00:55:11;;;;;;;53.53;9.13;;;29.30;42.50;;;;;;5031641;28;20204;-71
2023/06/17 00:57:39;;;;;;;26.80;6.83;;;29.20;42.40;;;;;;5039262;28;20196;-66
2023/06/17 01:00:10;;;;;;;44.53;8.27;;;29.20;42.40;;;;;;5028055;28;20216;-63
2023/06/17 01:02:39;;;;;;;44.17;8.33;;;29.20;42.40;;;;;;5016655;28;20245;-69
2023/06/17 01:05:11;;;;;;;35.67;7.73;;;29.20;42.40;;;;;;5017084;28;20206;-64
2023/06/17 01:07:50;;;;;;;42.63;8.23;;;29.20;42.40;;;;;;5022173;28;20201;-69
2023/06/17 01:10:22;;;;;;;46.20;8.23;;;29.10;42.30;;;;;;5011350;28;20581;-63
2023/06/17 01:12:50;;;;;;;34.93;7.63;;;29.10;42.40;;;;;;5027827;28;20258;-62
2023/06/17 01:15:18;;;;;;;35.63;7.77;;;29.10;42.40;;;;;;5030997;28;20234;-70
2023/06/17 01:17:46;;;;;;;37.53;7.53;;;29.10;42.40;;;;;;5036996;28;20645;-66
2023/06/17 01:20:15;;;;;;;34.13;7.53;;;29.00;42.40;;;;;;5029235;28;20675;-67
2023/06/17 01:22:43;;;;;;;38.93;7.70;;;29.00;42.40;;;;;;5045994;28;20267;-63
2023/06/17 01:25:13;;;;;;;27.63;6.97;;;29.00;42.40;;;;;;5046319;28;20720;-69
2023/06/17 01:27:41;;;;;;;34.97;7.33;;;29.00;42.40;;;;;;5038947;28;20619;-63
2023/06/17 01:30:09;;;;;;;39.37;7.77;;;29.00;42.40;;;;;;5033594;28;20215;-65
2023/06/17 01:32:36;;;;;;;32.20;7.57;;;28.90;42.40;;;;;;5044119;28;20236;-62
2023/06/17 01:35:07;;;;;;;35.60;7.53;;;28.90;42.40;;;;;;5044400;28;20212;-65
2023/06/17 01:37:40;;;;;;;36.70;7.97;;;28.90;42.40;;;;;;5048210;28;20754;-62
2023/06/17 01:40:11;;;;;;;40.33;8.17;;;28.90;42.40;;;;;;5025485;28;20209;-67
2023/06/17 01:42:45;;;;;;;35.60;7.70;;;28.80;43.00;;;;;;5032992;28;20201;-66
2023/06/17 01:45:13;;;;;;;42.63;8.70;;;28.80;42.30;;;;;;5021765;28;20208;-67
2023/06/17 01:47:41;;;;;;;43.80;8.60;;;28.80;42.40;;;;;;5030312;28;20865;-62
2023/06/17 01:50:08;;;;;;;49.03;8.93;;;28.80;42.40;;;;;;5032153;28;20240;-64
2023/06/17 01:52:35;;;;;;;46.70;8.33;;;28.80;42.40;;;;;;5026633;28;20211;-62
2023/06/17 01:55:02;;;;;;;38.97;8.30;;;28.80;42.50;;;;;;5026219;28;20205;-64
2023/06/17 01:57:30;;;;;;;45.33;8.47;;;28.80;42.50;;;;;;5043858;28;20215;-62
2023/06/17 01:59:58;;;;;;;38.50;8.37;;;28.70;42.40;;;;;;5037545;28;20201;-65
2023/06/17 02:02:25;;;;;;;28.13;7.07;;;28.80;42.50;;;;;;5046936;28;20204;-70
2023/06/17 02:04:52;;;;;;;41.73;8.80;;;28.70;42.50;;;;;;5035687;28;20197;-62
2023/06/17 02:07:25;;;;;;;37.00;8.03;;;28.70;42.50;;;;;;5023711;28;20971;-62
2023/06/17 02:09:52;;;;;;;42.57;8.87;;;28.70;42.50;;;;;;5033941;28;20228;-65
2023/06/17 02:12:19;;;;;;;49.60;8.90;;;28.70;42.50;;;;;;5033799;28;20197;-62
2023/06/17 02:14:45;;;;;;;36.17;8.03;;;28.70;42.50;;;;;;5026792;28;20227;-63
2023/06/17 02:17:15;;;;;;;38.73;8.47;;;28.60;42.50;;;;;;5037831;28;20208;-63
2023/06/17 02:19:41;;;;;;;40.13;8.47;;;28.60;42.50;;;;;;5041697;28;20208;-62
2023/06/17 02:22:09;;;;;;;45.27;8.93;;;28.60;42.50;;;;;;5040376;28;20211;-62
2023/06/17 02:24:35;;;;;;;33.27;7.83;;;28.60;42.50;;;;;;5039998;28;20656;-63
2023/06/17 02:27:03;;;;;;;38.70;7.90;;;28.60;42.50;;;;;;5020144;28;20205;-62
2023/06/17 02:29:29;;;;;;;53.30;9.10;;;28.60;42.50;;;;;;5021818;28;20229;-62
2023/06/17 02:31:56;;;;;;;35.50;7.60;;;28.60;42.50;;;;;;5015614;28;20201;-64
2023/06/17 02:34:25;;;;;;;36.13;8.07;;;28.50;42.50;;;;;;5016913;28;20197;-65
2023/06/17 02:36:51;;;;;;;37.40;8.17;;;28.60;42.60;;;;;;5022773;28;20212;-63
2023/06/17 02:39:18;;;;;;;42.27;8.43;;;28.50;42.50;;;;;;5027424;28;20209;-67
2023/06/17 02:41:45;;;;;;;39.67;8.30;;;28.50;42.60;;;;;;5021793;28;20204;-62
2023/06/17 02:44:12;;;;;;;35.07;8.23;;;28.50;42.60;;;;;;5020623;28;20201;-62
2023/06/17 02:46:39;;;;;;;50.43;9.40;;;28.50;42.60;;;;;;5021358;28;20214;-66
2023/06/17 02:49:05;;;;;;;38.50;7.97;;;28.50;42.60;;;;;;5047345;28;20223;-62
2023/06/17 02:51:34;;;;;;;55.60;9.80;;;28.50;42.60;;;;;;5023998;28;20213;-62
2023/06/17 02:54:00;;;;;;;45.77;9.23;;;28.40;42.50;;;;;;5031366;28;20652;-63
2023/06/17 02:56:27;;;;;;;77.83;11.23;;;28.40;42.60;;;;;;5027329;28;20212;-62
2023/06/17 02:58:54;;;;;;;37.93;7.87;;;28.40;42.60;;;;;;5035980;28;20663;-63
2023/06/17 03:01:22;;;;;;;58.93;9.87;;;28.40;42.60;;;;;;5027564;28;20206;-70
2023/06/17 03:03:48;;;;;;;51.47;9.30;;;28.40;42.60;;;;;;5028311;28;20300;-64
2023/06/17 03:06:15;;;;;;;35.97;8.23;;;28.40;42.60;;;;;;5029157;28;20925;-62
2023/06/17 03:08:44;;;;;;;32.83;8.10;;;28.40;42.60;;;;;;5038720;28;20717;-62
2023/06/17 03:11:10;;;;;;;43.00;7.97;;;28.40;42.60;;;;;;5020109;28;20204;-65
2023/06/17 03:13:37;;;;;;;35.43;7.63;;;28.40;42.70;;;;;;5027778;28;20209;-62
2023/06/17 03:16:05;;;;;;;36.80;8.33;;;28.40;42.70;;;;;;5025043;28;20209;-63
2023/06/17 03:18:32;;;;;;;49.43;9.37;;;28.40;42.70;;;;;;5026569;28;20203;-62
2023/06/17 03:20:59;;;;;;;36.50;8.00;;;28.40;42.70;;;;;;5028149;28;20205;-65
2023/06/17 03:23:26;;;;;;;40.33;7.77;;;28.30;42.70;;;;;;5028053;28;20211;-62
2023/06/17 03:25:55;;;;;;;34.33;8.00;;;28.30;42.70;;;;;;5027981;28;20200;-64
2023/06/17 03:28:21;;;;;;;43.73;8.70;;;28.30;42.70;;;;;;5015296;28;20189;-62
2023/06/17 03:30:48;;;;;;;37.97;8.40;;;28.30;42.70;;;;;;5029344;28;20225;-66
2023/06/17 03:33:15;;;;;;;40.57;8.80;;;28.30;42.70;;;;;;5039396;28;20211;-63
2023/06/17 03:35:42;;;;;;;50.40;9.10;;;28.30;43.00;;;;;;5047320;28;20679;-65
2023/06/17 03:38:09;;;;;;;34.37;7.80;;;28.30;42.80;;;;;;5047492;28;20218;-65
2023/06/17 03:40:36;;;;;;;58.73;9.90;;;28.30;42.80;;;;;;5047030;28;20257;-62
2023/06/17 03:43:05;;;;;;;37.87;8.00;;;28.20;42.70;;;;;;5040457;28;20200;-70
2023/06/17 03:45:35;;;;;;;56.77;9.77;;;28.30;42.80;;;;;;5025189;28;20209;-63
2023/06/17 03:48:02;;;;;;;35.93;8.23;;;28.20;42.80;;;;;;5038706;28;20217;-68
2023/06/17 03:50:29;;;;;;;53.47;9.63;;;28.20;42.70;;;;;;5028273;28;20677;-64
2023/06/17 03:52:56;;;;;;;49.23;9.43;;;28.20;42.80;;;;;;5045486;28;20598;-66
2023/06/17 03:55:23;;;;;;;27.10;7.63;;;28.20;42.80;;;;;;5036658;28;20217;-69
2023/06/17 03:57:50;;;;;;;43.37;9.17;;;28.10;42.80;;;;;;5028263;28;20633;-64
2023/06/17 04:00:19;;;;;;;30.80;8.47;;;28.10;42.80;;;;;;5028675;28;20732;-65
2023/06/17 04:02:47;;;;;;;45.50;8.93;;;28.20;42.80;;;;;;5027997;28;20200;-65
2023/06/17 04:05:14;;;;;;;39.63;8.53;;;28.10;42.80;;;;;;5037644;28;20250;-64
2023/06/17 04:07:42;;;;;;;36.30;8.43;;;28.10;42.80;;;;;;5048341;28;20203;-65
2023/06/17 04:10:10;;;;;;;35.60;8.57;;;28.10;42.80;;;;;;5046705;28;20231;-64
2023/06/17 04:12:37;;;;;;;37.23;8.33;;;28.10;42.90;;;;;;5028101;28;20200;-68
2023/06/17 04:15:06;;;;;;;43.90;9.77;;;28.10;42.90;;;;;;5030771;28;20621;-64
2023/06/17 04:17:35;;;;;;;33.73;8.53;;;28.10;43.00;;;;;;5047340;28;20200;-66
2023/06/17 04:20:10;;;;;;;46.77;9.17;;;28.10;43.00;;;;;;5047831;28;20261;-65
2023/06/17 04:22:38;;;;;;;32.23;8.13;;;28.00;42.90;;;;;;5008643;28;20287;-63
2023/06/17 04:25:06;;;;;;;55.80;10.13;;;28.10;43.00;;;;;;5008777;28;20194;-69
2023/06/17 04:27:33;;;;;;;31.70;7.93;;;28.00;43.00;;;;;;5048059;28;20211;-62
2023/06/17 04:30:01;;;;;;;35.43;8.37;;;28.00;43.00;;;;;;5046516;28;20227;-63
2023/06/17 04:32:28;;;;;;;42.83;9.43;;;28.00;43.00;;;;;;5046922;28;20279;-63
2023/06/17 04:34:56;;;;;;;38.37;8.77;;;28.00;43.10;;;;;;5028128;28;20319;-61
2023/06/17 04:37:23;;;;;;;42.87;9.20;;;28.00;43.20;;;;;;5028096;28;20296;-61
2023/06/17 04:39:52;;;;;;;67.20;11.07;;;28.00;43.30;;;;;;5026747;28;20211;-62
2023/06/17 04:42:19;;;;;;;30.87;7.67;;;27.90;43.20;;;;;;5044311;28;20200;-66
2023/06/17 04:44:48;;;;;;;35.60;8.43;;;27.90;43.20;;;;;;5046276;28;20207;-62
2023/06/17 04:47:16;;;;;;;36.83;8.37;;;27.90;43.20;;;;;;5048117;28;20210;-71
2023/06/17 04:49:44;;;;;;;38.83;8.63;;;27.90;43.20;;;;;;5041728;28;20232;-68
2023/06/17 04:52:12;;;;;;;37.13;8.83;;;27.90;43.20;;;;;;5029874;28;20205;-61
2023/06/17 04:54:39;;;;;;;31.87;8.27;;;27.90;43.20;;;;;;5025967;28;20258;-62
2023/06/17 04:57:07;;;;;;;39.10;8.50;;;27.90;43.20;;;;;;5034772;28;20216;-62
2023/06/17 04:59:34;;;;;;;42.23;9.23;;;27.80;43.20;;;;;;5024772;28;20205;-62
2023/06/17 05:02:01;;;;;;;41.70;8.97;;;27.80;43.40;;;;;;5038000;28;20721;-63
2023/06/17 05:04:28;;;;;;;37.37;8.57;;;27.90;43.20;;;;;;5042624;28;21130;-63
2023/06/17 05:06:54;;;;;;;35.30;8.30;;;27.80;43.20;;;;;;5047433;28;20571;-62
2023/06/17 05:09:23;;;;;;;38.47;8.57;;;27.80;43.20;;;;;;5040045;28;20205;-62
2023/06/17 05:11:50;;;;;;;36.53;8.47;;;27.80;43.40;;;;;;5033889;28;20683;-63
2023/06/17 05:14:17;;;;;;;40.87;9.10;;;27.80;43.40;;;;;;5033372;28;20201;-62
2023/06/17 05:16:44;;;;;;;35.80;8.57;;;27.80;43.40;;;;;;5031578;28;20665;-65
2023/06/17 05:19:11;;;;;;;46.20;9.57;;;27.80;43.40;;;;;;5027445;28;20188;-76
2023/06/17 05:21:38;;;;;;;39.97;8.87;;;27.80;43.50;;;;;;5034279;28;20213;-67
2023/06/17 05:24:05;;;;;;;32.07;8.00;;;27.80;43.50;;;;;;5042193;28;20345;-64
2023/06/17 05:26:33;;;;;;;47.23;9.50;;;27.80;43.60;;;;;;5044509;28;20200;-62
2023/06/17 05:29:00;;;;;;;41.13;8.53;;;27.80;43.60;;;;;;5047425;28;20247;-68
2023/06/17 05:31:27;;;;;;;35.90;8.40;;;27.80;43.60;;;;;;5041418;28;20227;-66
2023/06/17 05:33:54;;;;;;;46.43;9.53;;;27.80;43.60;;;;;;5044795;28;20204;-61
2023/06/17 05:36:21;;;;;;;37.00;8.40;;;27.80;43.70;;;;;;5047105;28;20298;-62
2023/06/17 05:38:48;;;;;;;53.67;9.77;;;27.80;43.70;;;;;;5043270;28;20208;-62
2023/06/17 05:41:14;;;;;;;35.57;8.50;;;27.80;43.70;;;;;;5045391;28;20204;-76
2023/06/17 05:43:43;;;;;;;39.20;8.57;;;27.80;43.70;;;;;;5045644;28;20200;-73
2023/06/17 05:46:10;;;;;;;42.17;8.53;;;27.80;43.80;;;;;;5028864;28;20209;-62
2023/06/17 05:48:37;;;;;;;31.63;7.70;;;27.80;44.40;;;;;;5041578;28;20228;-68
2023/06/17 05:51:04;;;;;;;45.87;9.37;;;27.80;43.80;;;;;;5047439;28;20234;-68
2023/06/17 05:53:31;;;;;;;30.07;7.67;;;27.80;43.80;;;;;;5047375;28;20230;-63
2023/06/17 05:55:58;;;;;;;34.23;8.53;;;27.80;43.80;;;;;;5047297;28;20204;-61
2023/06/17 05:58:25;;;;;;;31.10;8.13;;;27.80;43.80;;;;;;5044771;28;20200;-69
2023/06/17 06:00:53;;;;;;;48.87;9.37;;;27.80;43.80;;;;;;5041172;28;20692;-66
2023/06/17 06:03:20;;;;;;;42.50;9.33;;;27.80;43.90;;;;;;5043769;28;20209;-61
2023/06/17 06:05:46;;;;;;;33.70;8.27;;;27.80;44.00;;;;;;5047636;28;20204;-61
2023/06/17 06:08:13;;;;;;;47.27;9.50;;;27.80;43.90;;;;;;5030931;28;20204;-62
2023/06/17 06:10:40;;;;;;;39.50;8.67;;;27.80;43.90;;;;;;5025907;28;20227;-62
2023/06/17 06:13:08;;;;;;;40.83;8.83;;;27.80;43.90;;;;;;5046061;28;20214;-64
2023/06/17 06:15:35;;;;;;;47.73;9.27;;;27.80;43.90;;;;;;5030492;28;20208;-62
2023/06/17 06:18:04;;;;;;;36.40;8.30;;;27.80;43.80;;;;;;5041512;28;20203;-63
2023/06/17 06:20:30;;;;;;;42.87;9.33;;;27.80;43.90;;;;;;5047444;28;20207;-63
2023/06/17 06:22:58;;;;;;;35.43;8.07;;;27.80;43.80;;;;;;5048882;28;20208;-63
2023/06/17 06:25:25;;;;;;;37.47;8.53;;;27.80;43.90;;;;;;5041935;28;20192;-63
2023/06/17 06:27:52;;;;;;;37.37;8.77;;;27.80;43.80;;;;;;5042374;28;20200;-63
2023/06/17 06:30:19;;;;;;;41.60;9.20;;;27.80;43.80;;;;;;5047476;28;20244;-65
2023/06/17 06:32:46;;;;;;;37.73;8.60;;;27.80;43.70;;;;;;5044943;28;20197;-62
2023/06/17 06:35:14;;;;;;;42.27;8.70;;;27.80;43.60;;;;;;5050627;28;20216;-63
2023/06/17 06:37:41;;;;;;;34.03;8.67;;;27.80;43.50;;;;;;5050542;28;20207;-62
2023/06/17 06:40:09;;;;;;;52.23;9.73;;;27.80;43.50;;;;;;5045206;28;20680;-65
2023/06/17 06:42:38;;;;;;;35.13;8.20;;;27.80;43.60;;;;;;5029019;28;20201;-62
2023/06/17 06:45:05;;;;;;;35.37;8.53;;;27.80;43.60;;;;;;5048075;28;20847;-64
2023/06/17 06:47:32;;;;;;;31.80;8.57;;;27.80;43.60;;;;;;5044670;28;20227;-64
2023/06/17 06:49:59;;;;;;;35.13;8.47;;;27.80;43.20;;;;;;5013583;28;20225;-64
2023/06/17 06:52:27;;;;;;;42.23;8.90;;;27.80;43.10;;;;;;5010428;28;20201;-63
2023/06/17 06:54:54;;;;;;;29.80;8.47;;;27.70;43.10;;;;;;5010218;28;20190;-64
2023/06/17 06:57:22;;;;;;;48.27;9.83;;;27.80;43.20;;;;;;5010572;28;20272;-64
2023/06/17 06:59:48;;;;;;;34.37;8.23;;;27.70;43.10;;;;;;5026588;28;20197;-71
2023/06/17 07:02:15;;;;;;;33.10;7.83;;;27.80;43.30;;;;;;5016684;28;20215;-71
2023/06/17 07:04:43;;;;;;;36.40;8.80;;;27.80;43.40;;;;;;5030002;28;20208;-62
2023/06/17 07:07:09;;;;;;;38.63;8.53;;;27.80;43.20;;;;;;5029840;28;20619;-63
2023/06/17 07:09:38;;;;;;;38.23;9.07;;;27.80;43.10;;;;;;5029867;28;20193;-62
2023/06/17 07:12:06;;;;;;;43.13;8.90;;;27.80;43.20;;;;;;5029714;28;20221;-62
2023/06/17 07:14:34;;;;;;;41.50;8.27;;;27.70;43.10;;;;;;5029966;28;20283;-63
2023/06/17 07:17:01;;;;;;;34.47;8.27;;;27.80;43.20;;;;;;5030239;28;20209;-61
2023/06/17 07:19:27;;;;;;;48.10;9.83;;;27.80;43.20;;;;;;5045367;28;20283;-61
2023/06/17 07:21:55;;;;;;;28.40;8.20;;;27.70;43.10;;;;;;5049607;28;20196;-67
2023/06/17 07:24:21;;;;;;;43.63;9.20;;;27.80;43.40;;;;;;5032460;28;20196;-66
2023/06/17 07:26:50;;;;;;;33.87;8.40;;;27.80;43.20;;;;;;5023740;28;20579;-64
2023/06/17 07:29:17;;;;;;;44.50;9.13;;;27.80;43.20;;;;;;5015093;28;20200;-67
2023/06/17 07:31:44;;;;;;;38.83;9.03;;;27.80;43.20;;;;;;5049120;28;20231;-62
2023/06/17 07:34:11;;;;;;;34.83;8.63;;;27.80;43.20;;;;;;5048358;28;20568;-63
2023/06/17 07:36:37;;;;;;;62.80;10.50;;;27.80;43.10;;;;;;5044515;28;20220;-65
2023/06/17 07:39:05;;;;;;;37.67;8.10;;;27.80;43.20;;;;;;5034122;28;20210;-64
2023/06/17 07:41:32;;;;;;;53.03;9.83;;;27.80;43.20;;;;;;5043119;28;20196;-62
2023/06/17 07:44:00;;;;;;;32.67;8.60;;;27.90;43.20;;;;;;5049511;28;20558;-68
2023/06/17 07:46:27;;;;;;;61.90;10.97;;;27.90;43.20;;;;;;5039766;28;20226;-62
2023/06/17 07:48:54;;;;;;;42.97;9.40;;;27.90;43.20;;;;;;5023042;28;20223;-68
2023/06/17 07:51:20;;;;;;;40.13;8.93;;;27.90;43.20;;;;;;5048117;28;20242;-68
2023/06/17 07:53:47;;;;;;;42.27;8.80;;;27.90;43.20;;;;;;5035364;28;20207;-69
2023/06/17 07:56:14;;;;;;;35.13;7.97;;;27.90;43.90;;;;;;5049244;28;20196;-64
2023/06/17 07:58:43;;;;;;;47.70;9.50;;;28.00;43.30;;;;;;5046776;28;20200;-65
2023/06/17 08:01:11;;;;;;;40.77;8.63;;;28.00;43.30;;;;;;5034189;28;20650;-65
2023/06/17 08:03:38;;;;;;;45.17;9.57;;;28.00;43.30;;;;;;5035489;28;20204;-65
2023/06/17 08:06:05;;;;;;;34.90;8.50;;;28.00;43.30;;;;;;5039009;28;20207;-65
2023/06/17 08:08:32;;;;;;;38.80;8.87;;;28.00;43.30;;;;;;5048938;28;20669;-66
2023/06/17 08:10:59;;;;;;;45.03;9.00;;;28.10;43.30;;;;;;5029900;28;20228;-65
2023/06/17 08:13:26;;;;;;;39.03;8.63;;;28.10;43.30;;;;;;5026349;28;20205;-64
2023/06/17 08:15:53;;;;;;;42.07;9.03;;;28.10;43.30;;;;;;5028957;28;20201;-64
2023/06/17 08:18:21;;;;;;;42.60;9.40;;;28.10;43.30;;;;;;5028721;28;20209;-64
2023/06/17 08:20:48;;;;;;;40.53;8.93;;;28.20;43.80;;;;;;5028924;28;20658;-65
2023/06/17 08:23:15;;;;;;;60.27;10.77;;;28.20;43.80;;;;;;5028047;28;20209;-67
2023/06/17 08:25:42;;;;;;;39.60;8.57;;;28.30;43.90;;;;;;5048101;28;20211;-64
2023/06/17 08:28:09;;;;;;;38.77;8.70;;;28.30;43.80;;;;;;5048548;28;20397;-64
2023/06/17 08:30:36;;;;;;;46.73;9.33;;;28.30;43.80;;;;;;5048266;28;20204;-64
2023/06/17 08:33:02;;;;;;;47.87;9.23;;;28.40;43.70;;;;;;5038220;28;20201;-64
2023/06/17 08:35:31;;;;;;;54.33;10.50;;;28.40;43.90;;;;;;5047437;28;20215;-70
2023/06/17 08:37:57;;;;;;;40.17;10.17;;;28.40;44.00;;;;;;5025002;28;20812;-65
2023/06/17 08:40:27;;;;;;;36.80;9.03;;;28.50;43.70;;;;;;5014250;28;20205;-70
2023/06/17 08:43:01;;;;;;;49.03;10.57;;;28.50;43.60;;;;;;5025749;28;20219;-69
2023/06/17 08:45:31;;;;;;;43.90;9.50;;;28.60;43.70;;;;;;5027879;28;20193;-73
2023/06/17 08:47:59;;;;;;;43.13;8.87;;;28.60;43.70;;;;;;5038908;28;20221;-65
2023/06/17 08:50:27;;;;;;;37.77;8.87;;;28.70;43.70;;;;;;5034924;28;20204;-67
2023/06/17 08:52:56;;;;;;;32.27;8.47;;;28.70;43.70;;;;;;5046172;28;20204;-64
2023/06/17 08:55:23;;;;;;;35.13;8.53;;;28.70;43.70;;;;;;5047605;28;20199;-64
2023/06/17 08:57:51;;;;;;;40.20;9.13;;;28.80;43.80;;;;;;5041548;28;20220;-65
2023/06/17 09:00:18;;;;;;;59.30;9.90;;;28.80;43.70;;;;;;5043714;28;20196;-60
2023/06/17 09:02:46;;;;;;;24.30;7.03;;;28.80;43.80;;;;;;5023993;28;20206;-68
2023/06/17 09:05:13;;;;;;;27.37;7.70;;;28.90;43.80;;;;;;5035313;28;20797;-66
2023/06/17 09:07:40;;;;;;;32.63;7.73;;;29.00;43.90;;;;;;5032434;28;20196;-65
2023/06/17 09:10:09;;;;;;;29.77;7.17;;;29.00;43.90;;;;;;5029594;28;20208;-61
2023/06/17 09:12:38;;;;;;;33.00;7.83;;;29.00;43.90;;;;;;5023132;28;20236;-59
2023/06/17 09:15:06;;;;;;;50.40;9.27;;;29.10;43.90;;;;;;5042109;28;20203;-59
2023/06/17 09:17:34;;;;;;;56.40;9.53;;;29.10;43.90;;;;;;5024387;28;20215;-60
2023/06/17 09:20:11;;;;;;;34.83;8.47;;;29.20;44.00;;;;;;5022899;28;20279;-60
2023/06/17 09:22:43;;;;;;;26.83;7.43;;;29.20;43.90;;;;;;5033618;28;20204;-66
2023/06/17 09:25:13;;;;;;;39.33;8.13;;;29.30;43.80;;;;;;5032858;28;20212;-59
2023/06/17 09:27:49;;;;;;;58.77;10.53;;;29.30;43.90;;;;;;5030537;28;20262;-62
2023/06/17 09:30:17;;;;;;;36.00;8.07;;;29.30;44.00;;;;;;5027381;28;20200;-65
2023/06/17 09:32:44;;;;;;;26.17;7.30;;;29.40;43.70;;;;;;5038712;28;20222;-61
2023/06/17 09:35:15;;;;;;;39.13;8.63;;;29.40;44.00;;;;;;5030858;28;20208;-61
2023/06/17 09:37:48;;;;;;;51.73;9.47;;;29.40;43.80;;;;;;5041201;28;20250;-63
2023/06/17 09:40:16;;;;;;;32.40;7.87;;;29.40;43.70;;;;;;5026766;28;20200;-60
2023/06/17 09:42:44;;;;;;;27.90;7.07;;;29.50;43.60;;;;;;5036863;28;20880;-61
2023/06/17 09:45:12;;;;;;;31.30;8.23;;;29.60;43.90;;;;;;5047661;28;20303;-68
2023/06/17 09:47:42;;;;;;;35.43;8.57;;;29.60;43.70;;;;;;5040211;28;20212;-63
2023/06/17 09:50:11;;;;;;;36.60;7.87;;;29.60;43.70;;;;;;5047467;28;20231;-60
2023/06/17 09:52:39;;;;;;;36.30;8.03;;;29.70;44.00;;;;;;5042481;28;20224;-62
2023/06/17 09:55:07;;;;;;;36.50;7.70;;;29.70;43.80;;;;;;5030507;28;20253;-67
2023/06/17 09:57:39;;;;;;;38.77;8.17;;;29.70;43.90;;;;;;5043933;28;20188;-65
2023/06/17 10:00:10;;;;;;;41.07;8.63;;;29.80;44.00;;;;;;5018143;28;20213;-67
2023/06/17 10:02:39;;;;;;;29.33;7.47;;;29.80;44.00;;;;;;5031066;28;20207;-66
2023/06/17 10:05:10;;;;;;;38.00;7.87;;;29.90;44.00;;;;;;5023411;28;20305;-74
2023/06/17 10:07:39;;;;;;;45.77;8.87;;;29.90;44.10;;;;;;5010801;28;20205;-75
2023/06/17 10:10:10;;;;;;;44.80;9.35;;;30.00;44.10;;;;;;5011263;28;20213;-74
2023/06/17 10:12:44;;;;;;;35.55;8.32;;;30.10;44.10;;;;;;5011147;28;20217;-66
2023/06/17 10:15:12;;;;;;;35.63;8.40;;;30.10;44.10;;;;;;5020715;28;20200;-65
2023/06/17 10:17:43;;;;;;;46.50;9.07;;;30.10;44.10;;;;;;5050692;28;20274;-66
2023/06/17 10:20:12;;;;;;;31.85;7.78;;;30.20;44.10;;;;;;5050763;28;20254;-77
2023/06/17 10:22:40;;;;;;;39.87;8.67;;;30.20;44.10;;;;;;5050601;28;20188;-66
2023/06/17 10:25:10;;;;;;;41.23;8.80;;;30.30;44.00;;;;;;5043800;28;20862;-66
2023/06/17 10:27:38;;;;;;;58.63;9.57;;;30.30;43.90;;;;;;5042114;28;20701;-65
2023/06/17 10:30:27;;;;;;;34.30;7.75;;;30.40;44.00;;;;;;5025983;28;20200;-66
2023/06/17 10:32:56;;;;;;;36.17;7.80;;;30.40;44.10;;;;;;5021992;28;20236;-65
2023/06/17 10:35:23;;;;;;;33.20;7.72;;;30.50;44.00;;;;;;5033392;28;20204;-66
2023/06/17 10:37:51;;;;;;;37.30;8.30;;;30.50;44.00;;;;;;5037428;28;20204;-65
2023/06/17 10:40:25;;;;;;;46.95;8.57;;;30.60;44.20;;;;;;5028225;28;20205;-68
2023/06/17 10:43:18;;;;;;;31.40;7.63;;;30.70;44.10;;;;;;5044134;28;20849;-65
2023/06/17 10:45:50;;;;;;;41.70;8.53;;;30.70;44.00;;;;;;5030572;28;20216;-65
2023/06/17 10:48:20;;;;;;;40.15;8.52;;;30.80;43.90;;;;;;5030280;28;20232;-65
2023/06/17 10:50:52;;;;;;;52.03;9.83;;;30.80;43.90;;;;;;5015679;28;20216;-64
2023/06/17 10:53:26;;;;;;;56.97;9.77;;;30.90;44.00;;;;;;5037560;28;20228;-66
2023/06/17 10:55:53;;;;;;;28.63;7.18;;;30.90;43.90;;;;;;5045521;28;20208;-68
2023/06/17 10:58:21;;;;;;;66.60;10.60;;;31.00;43.80;;;;;;5042210;28;20200;-65
2023/06/17 11:01:01;;;;;;;38.85;8.35;;;31.00;44.30;;;;;;5029833;28;20209;-65
2023/06/17 11:03:28;;;;;;;33.65;8.07;;;31.00;43.70;;;;;;5023332;28;20257;-66
2023/06/17 11:05:58;;;;;;;37.13;8.38;;;31.10;43.80;;;;;;5038464;28;20278;-65
2023/06/17 11:08:25;;;;;;;36.00;8.25;;;31.20;43.80;;;;;;5010466;28;20582;-68
2023/06/17 11:10:52;;;;;;;35.88;7.85;;;31.20;43.80;;;;;;5020238;28;20645;-64
2023/06/17 11:13:22;;;;;;;43.28;8.50;;;31.30;43.70;;;;;;5027141;28;20228;-63
2023/06/17 11:15:55;;;;;;;37.22;8.25;;;31.30;43.70;;;;;;5019885;28;20763;-64
2023/06/17 11:18:22;;;;;;;32.38;7.28;;;31.30;43.80;;;;;;5029971;28;20905;-59
2023/06/17 11:20:49;;;;;;;40.33;8.27;;;31.40;43.80;;;;;;5021745;28;20221;-63
2023/06/17 11:23:16;;;;;;;27.38;6.55;;;31.50;43.80;;;;;;5031911;28;20209;-61
2023/06/17 11:25:43;;;;;;;28.75;7.50;;;31.60;43.90;;;;;;5022155;28;20583;-63
2023/06/17 11:28:10;;;;;;;39.35;8.73;;;31.60;43.80;;;;;;5026123;28;20201;-64
2023/06/17 11:30:40;;;;;;;25.48;7.25;;;31.70;43.90;;;;;;5031012;28;20200;-76
2023/06/17 11:33:07;;;;;;;49.05;9.82;;;31.90;43.90;;;;;;5030755;28;20319;-66
2023/06/17 11:35:33;;;;;;;33.88;7.75;;;32.00;43.70;;;;;;5024237;28;20211;-67
2023/06/17 11:38:00;;;;;;;30.85;7.75;;;32.00;43.70;;;;;;5021111;28;20664;-62
2023/06/17 11:40:28;;;;;;;50.38;9.25;;;32.10;43.60;;;;;;5022431;28;20661;-78
2023/06/17 11:42:57;;;;;;;30.50;7.63;;;32.20;43.60;;;;;;5036946;28;20571;-80
2023/06/17 11:45:24;;;;;;;27.67;7.25;;;32.30;43.50;;;;;;5046477;28;20673;-79
2023/06/17 11:47:52;;;;;;;41.67;8.77;;;32.40;43.50;;;;;;5029975;28;20351;-76
2023/06/17 11:50:19;;;;;;;26.58;7.07;;;32.50;43.30;;;;;;5026638;28;20202;-74
2023/06/17 11:52:54;;;;;;;31.50;7.68;;;32.60;43.40;;;;;;5029880;28;20548;-74
2023/06/17 11:55:20;;;;;;;38.55;8.55;;;32.60;43.10;;;;;;5032032;28;20217;-72
2023/06/17 11:57:49;;;;;;;62.90;10.63;;;32.70;43.20;;;;;;5018792;28;20853;-80
2023/06/17 12:00:16;;;;;;;29.40;7.68;;;32.80;43.10;;;;;;5014662;28;20205;-62
2023/06/17 12:02:43;;;;;;;35.60;8.45;;;32.80;43.10;;;;;;5015343;28;20200;-61
2023/06/17 12:05:11;;;;;;;39.13;8.27;;;32.90;42.90;;;;;;5033435;28;20204;-60
2023/06/17 12:07:39;;;;;;;36.67;7.80;;;33.00;42.80;;;;;;5031709;28;20196;-70
2023/06/17 12:10:07;;;;;;;27.38;6.95;;;33.00;42.70;;;;;;5028860;28;20192;-60
2023/06/17 12:12:37;;;;;;;44.08;8.88;;;33.10;42.70;;;;;;5036399;28;20227;-63
2023/06/17 12:15:06;;;;;;;48.78;9.00;;;33.10;42.60;;;;;;5028862;28;20200;-60
2023/06/17 12:17:43;;;;;;;30.38;7.28;;;33.10;42.60;;;;;;5032519;28;20209;-60
2023/06/17 12:20:15;;;;;;;38.83;8.40;;;33.10;42.20;;;;;;5014746;28;20559;-68
2023/06/17 12:22:42;;;;;;;31.48;7.55;;;33.10;42.00;;;;;;5026169;28;20216;-67
2023/06/17 12:25:11;;;;;;;38.95;8.00;;;33.20;42.20;;;;;;5038226;28;20204;-62
2023/06/17 12:27:38;;;;;;;25.83;6.95;;;33.10;42.10;;;;;;5029726;28;20205;-62
2023/06/17 12:30:06;;;;;;;28.02;7.40;;;33.10;42.10;;;;;;5009163;28;20209;-64
2023/06/17 12:32:33;;;;;;;40.35;8.38;;;33.20;42.10;;;;;;5020963;28;20232;-60
2023/06/17 12:35:00;;;;;;;30.92;7.72;;;33.10;42.00;;;;;;5046282;28;20252;-61
2023/06/17 12:37:31;;;;;;;39.53;8.23;;;33.10;41.80;;;;;;5045372;28;20196;-59
2023/06/17 12:40:01;;;;;;;22.05;6.90;;;33.10;41.60;;;;;;5026562;28;20196;-59